sensor_id;sensor_type;location;lat;lon;timestamp;P1;durP1;ratioP1;P2;durP2;ratioP2
28523;SDS011;15734;50.904;6.922;2023-04-25T00:01:58;12.15;;;3.50;;
28523;SDS011;15734;50.904;6.922;2023-04-25T00:04:24;22.80;;;4.28;;
28523;SDS011;15734;50.904;6.922;2023-04-25T00:06:50;12.07;;;3.95;;
28523;SDS011;15734;50.904;6.922;2023-04-25T00:09:17;13.10;;;4.03;;
28523;SDS011;15734;50.904;6.922;2023-04-25T00:11:42;15.98;;;4.68;;
28523;SDS011;15734;50.904;6.922;2023-04-25T00:14:08;11.50;;;3.65;;
28523;SDS011;15734;50.904;6.922;2023-04-25T00:16:34;18.08;;;3.80;;
28523;SDS011;15734;50.904;6.922;2023-04-25T00:19:00;11.63;;;3.60;;
28523;SDS011;15734;50.904;6.922;2023-04-25T00:21:28;11.88;;;4.25;;
28523;SDS011;15734;50.904;6.922;2023-04-25T00:23:54;14.98;;;4.03;;
28523;SDS011;15734;50.904;6.922;2023-04-25T00:26:20;9.05;;;4.05;;
28523;SDS011;15734;50.904;6.922;2023-04-25T00:28:46;13.05;;;3.88;;
28523;SDS011;15734;50.904;6.922;2023-04-25T00:31:12;21.38;;;4.40;;
28523;SDS011;15734;50.904;6.922;2023-04-25T00:33:38;14.13;;;4.20;;
28523;SDS011;15734;50.904;6.922;2023-04-25T00:36:04;18.98;;;4.88;;
28523;SDS011;15734;50.904;6.922;2023-04-25T00:38:30;22.45;;;5.75;;
28523;SDS011;15734;50.904;6.922;2023-04-25T00:40:56;16.20;;;4.85;;
28523;SDS011;15734;50.904;6.922;2023-04-25T00:43:22;15.48;;;4.03;;
28523;SDS011;15734;50.904;6.922;2023-04-25T00:45:51;23.08;;;4.90;;
28523;SDS011;15734;50.904;6.922;2023-04-25T00:48:17;17.85;;;4.40;;
28523;SDS011;15734;50.904;6.922;2023-04-25T00:50:58;17.52;;;4.65;;
28523;SDS011;15734;50.904;6.922;2023-04-25T00:53:24;19.42;;;4.68;;
28523;SDS011;15734;50.904;6.922;2023-04-25T00:55:51;19.10;;;5.78;;
28523;SDS011;15734;50.904;6.922;2023-04-25T00:58:17;23.35;;;4.60;;
28523;SDS011;15734;50.904;6.922;2023-04-25T01:00:44;12.48;;;4.57;;
28523;SDS011;15734;50.904;6.922;2023-04-25T01:03:11;13.35;;;4.78;;
28523;SDS011;15734;50.904;6.922;2023-04-25T01:05:38;13.10;;;4.35;;
28523;SDS011;15734;50.904;6.922;2023-04-25T01:08:06;20.33;;;4.72;;
28523;SDS011;15734;50.904;6.922;2023-04-25T01:10:32;19.40;;;5.20;;
28523;SDS011;15734;50.904;6.922;2023-04-25T01:12:57;25.65;;;5.65;;
28523;SDS011;15734;50.904;6.922;2023-04-25T01:15:23;14.55;;;4.57;;
28523;SDS011;15734;50.904;6.922;2023-04-25T01:17:49;12.77;;;4.30;;
28523;SDS011;15734;50.904;6.922;2023-04-25T01:20:14;18.50;;;5.38;;
28523;SDS011;15734;50.904;6.922;2023-04-25T01:22:41;19.55;;;5.25;;
28523;SDS011;15734;50.904;6.922;2023-04-25T01:25:07;18.20;;;4.35;;
28523;SDS011;15734;50.904;6.922;2023-04-25T01:27:35;22.70;;;5.45;;
28523;SDS011;15734;50.904;6.922;2023-04-25T01:30:02;24.10;;;5.30;;
28523;SDS011;15734;50.904;6.922;2023-04-25T01:32:28;18.30;;;4.53;;
28523;SDS011;15734;50.904;6.922;2023-04-25T01:35:02;18.85;;;5.57;;
28523;SDS011;15734;50.904;6.922;2023-04-25T01:37:44;10.98;;;5.10;;
28523;SDS011;15734;50.904;6.922;2023-04-25T01:40:10;25.10;;;5.32;;
28523;SDS011;15734;50.904;6.922;2023-04-25T01:42:38;19.33;;;5.47;;
28523;SDS011;15734;50.904;6.922;2023-04-25T01:45:06;22.75;;;4.97;;
28523;SDS011;15734;50.904;6.922;2023-04-25T01:47:32;20.77;;;4.57;;
28523;SDS011;15734;50.904;6.922;2023-04-25T01:50:00;18.48;;;5.82;;
28523;SDS011;15734;50.904;6.922;2023-04-25T01:52:26;19.25;;;5.85;;
28523;SDS011;15734;50.904;6.922;2023-04-25T01:54:52;23.65;;;4.93;;
28523;SDS011;15734;50.904;6.922;2023-04-25T01:57:19;14.43;;;5.10;;
28523;SDS011;15734;50.904;6.922;2023-04-25T01:59:44;27.73;;;5.15;;
28523;SDS011;15734;50.904;6.922;2023-04-25T02:02:10;18.77;;;4.85;;
28523;SDS011;15734;50.904;6.922;2023-04-25T02:04:36;24.92;;;5.10;;
28523;SDS011;15734;50.904;6.922;2023-04-25T02:07:02;23.80;;;5.75;;
28523;SDS011;15734;50.904;6.922;2023-04-25T02:09:28;17.77;;;5.00;;
28523;SDS011;15734;50.904;6.922;2023-04-25T02:11:54;22.58;;;6.25;;
28523;SDS011;15734;50.904;6.922;2023-04-25T02:14:20;21.13;;;4.97;;
28523;SDS011;15734;50.904;6.922;2023-04-25T02:16:45;14.48;;;4.28;;
28523;SDS011;15734;50.904;6.922;2023-04-25T02:19:12;22.17;;;5.63;;
28523;SDS011;15734;50.904;6.922;2023-04-25T02:21:37;22.42;;;4.65;;
28523;SDS011;15734;50.904;6.922;2023-04-25T02:24:03;22.75;;;5.32;;
28523;SDS011;15734;50.904;6.922;2023-04-25T02:26:29;19.70;;;4.75;;
28523;SDS011;15734;50.904;6.922;2023-04-25T02:28:55;15.25;;;5.78;;
28523;SDS011;15734;50.904;6.922;2023-04-25T02:31:21;24.33;;;4.72;;
28523;SDS011;15734;50.904;6.922;2023-04-25T02:33:47;24.48;;;4.82;;
28523;SDS011;15734;50.904;6.922;2023-04-25T02:36:13;18.13;;;6.00;;
28523;SDS011;15734;50.904;6.922;2023-04-25T02:38:39;33.08;;;5.00;;
28523;SDS011;15734;50.904;6.922;2023-04-25T02:41:05;16.90;;;4.22;;
28523;SDS011;15734;50.904;6.922;2023-04-25T02:43:31;14.50;;;3.65;;
28523;SDS011;15734;50.904;6.922;2023-04-25T02:45:56;14.07;;;4.53;;
28523;SDS011;15734;50.904;6.922;2023-04-25T02:48:22;18.27;;;4.13;;
28523;SDS011;15734;50.904;6.922;2023-04-25T02:50:47;12.55;;;4.35;;
28523;SDS011;15734;50.904;6.922;2023-04-25T02:53:13;13.45;;;3.72;;
28523;SDS011;15734;50.904;6.922;2023-04-25T02:55:38;14.48;;;4.40;;
28523;SDS011;15734;50.904;6.922;2023-04-25T02:58:04;12.35;;;3.85;;
28523;SDS011;15734;50.904;6.922;2023-04-25T03:00:30;19.27;;;3.75;;
28523;SDS011;15734;50.904;6.922;2023-04-25T03:02:55;12.18;;;3.42;;
28523;SDS011;15734;50.904;6.922;2023-04-25T03:05:21;14.52;;;4.00;;
28523;SDS011;15734;50.904;6.922;2023-04-25T03:07:47;19.75;;;4.50;;
28523;SDS011;15734;50.904;6.922;2023-04-25T03:10:12;13.98;;;4.18;;
28523;SDS011;15734;50.904;6.922;2023-04-25T03:12:38;31.17;;;3.90;;
28523;SDS011;15734;50.904;6.922;2023-04-25T03:15:04;14.98;;;4.00;;
28523;SDS011;15734;50.904;6.922;2023-04-25T03:17:30;22.02;;;4.22;;
28523;SDS011;15734;50.904;6.922;2023-04-25T03:19:56;12.82;;;3.55;;
28523;SDS011;15734;50.904;6.922;2023-04-25T03:22:22;9.13;;;3.55;;
28523;SDS011;15734;50.904;6.922;2023-04-25T03:24:48;10.60;;;3.75;;
28523;SDS011;15734;50.904;6.922;2023-04-25T03:27:14;10.38;;;3.75;;
28523;SDS011;15734;50.904;6.922;2023-04-25T03:29:40;22.70;;;4.70;;
28523;SDS011;15734;50.904;6.922;2023-04-25T03:32:06;23.02;;;3.67;;
28523;SDS011;15734;50.904;6.922;2023-04-25T03:34:31;14.35;;;4.07;;
28523;SDS011;15734;50.904;6.922;2023-04-25T03:36:57;22.17;;;3.75;;
28523;SDS011;15734;50.904;6.922;2023-04-25T03:39:22;18.52;;;4.05;;
28523;SDS011;15734;50.904;6.922;2023-04-25T03:41:48;13.60;;;3.95;;
28523;SDS011;15734;50.904;6.922;2023-04-25T03:44:13;18.42;;;3.90;;
28523;SDS011;15734;50.904;6.922;2023-04-25T03:46:39;21.85;;;5.10;;
28523;SDS011;15734;50.904;6.922;2023-04-25T03:49:05;15.32;;;4.47;;
28523;SDS011;15734;50.904;6.922;2023-04-25T03:51:30;15.75;;;3.42;;
28523;SDS011;15734;50.904;6.922;2023-04-25T03:53:56;6.60;;;3.78;;
28523;SDS011;15734;50.904;6.922;2023-04-25T03:56:21;23.73;;;4.47;;
28523;SDS011;15734;50.904;6.922;2023-04-25T03:58:47;21.38;;;5.25;;
28523;SDS011;15734;50.904;6.922;2023-04-25T04:01:13;13.68;;;4.47;;
28523;SDS011;15734;50.904;6.922;2023-04-25T04:03:38;13.18;;;3.80;;
28523;SDS011;15734;50.904;6.922;2023-04-25T04:06:04;19.23;;;4.40;;
28523;SDS011;15734;50.904;6.922;2023-04-25T04:08:31;17.77;;;4.85;;
28523;SDS011;15734;50.904;6.922;2023-04-25T04:10:57;21.50;;;5.55;;
28523;SDS011;15734;50.904;6.922;2023-04-25T04:13:25;23.65;;;4.68;;
28523;SDS011;15734;50.904;6.922;2023-04-25T04:15:51;17.17;;;4.78;;
28523;SDS011;15734;50.904;6.922;2023-04-25T04:18:17;19.88;;;7.20;;
28523;SDS011;15734;50.904;6.922;2023-04-25T04:20:42;16.05;;;4.50;;
28523;SDS011;15734;50.904;6.922;2023-04-25T04:23:08;23.92;;;4.43;;
28523;SDS011;15734;50.904;6.922;2023-04-25T04:25:33;10.95;;;3.83;;
28523;SDS011;15734;50.904;6.922;2023-04-25T04:27:59;18.38;;;5.25;;
28523;SDS011;15734;50.904;6.922;2023-04-25T04:30:25;18.10;;;4.18;;
28523;SDS011;15734;50.904;6.922;2023-04-25T04:32:54;13.77;;;4.88;;
28523;SDS011;15734;50.904;6.922;2023-04-25T04:35:20;19.45;;;4.57;;
28523;SDS011;15734;50.904;6.922;2023-04-25T04:37:47;26.00;;;4.93;;
28523;SDS011;15734;50.904;6.922;2023-04-25T04:40:12;12.65;;;3.80;;
28523;SDS011;15734;50.904;6.922;2023-04-25T04:42:41;16.90;;;3.92;;
28523;SDS011;15734;50.904;6.922;2023-04-25T04:45:07;12.43;;;4.03;;
28523;SDS011;15734;50.904;6.922;2023-04-25T04:47:33;12.60;;;4.03;;
28523;SDS011;15734;50.904;6.922;2023-04-25T04:49:59;15.73;;;4.55;;
28523;SDS011;15734;50.904;6.922;2023-04-25T04:52:24;22.05;;;4.40;;
28523;SDS011;15734;50.904;6.922;2023-04-25T04:54:50;19.83;;;4.90;;
28523;SDS011;15734;50.904;6.922;2023-04-25T04:57:15;26.20;;;3.97;;
28523;SDS011;15734;50.904;6.922;2023-04-25T04:59:41;14.77;;;4.10;;
28523;SDS011;15734;50.904;6.922;2023-04-25T05:02:07;24.08;;;4.55;;
28523;SDS011;15734;50.904;6.922;2023-04-25T05:04:32;28.98;;;5.43;;
28523;SDS011;15734;50.904;6.922;2023-04-25T05:06:58;18.13;;;4.80;;
28523;SDS011;15734;50.904;6.922;2023-04-25T05:09:24;21.40;;;4.30;;
28523;SDS011;15734;50.904;6.922;2023-04-25T05:11:50;20.17;;;5.13;;
28523;SDS011;15734;50.904;6.922;2023-04-25T05:14:16;19.02;;;4.90;;
28523;SDS011;15734;50.904;6.922;2023-04-25T05:16:42;28.10;;;5.10;;
28523;SDS011;15734;50.904;6.922;2023-04-25T05:19:08;27.20;;;5.32;;
28523;SDS011;15734;50.904;6.922;2023-04-25T05:21:34;16.05;;;4.75;;
28523;SDS011;15734;50.904;6.922;2023-04-25T05:24:00;30.73;;;5.88;;
28523;SDS011;15734;50.904;6.922;2023-04-25T05:26:26;26.08;;;5.40;;
28523;SDS011;15734;50.904;6.922;2023-04-25T05:28:55;25.98;;;6.75;;
28523;SDS011;15734;50.904;6.922;2023-04-25T05:31:24;19.55;;;5.13;;
28523;SDS011;15734;50.904;6.922;2023-04-25T05:33:50;26.20;;;4.97;;
28523;SDS011;15734;50.904;6.922;2023-04-25T05:36:16;16.02;;;4.55;;
28523;SDS011;15734;50.904;6.922;2023-04-25T05:38:43;15.25;;;4.72;;
28523;SDS011;15734;50.904;6.922;2023-04-25T05:41:08;24.38;;;4.68;;
28523;SDS011;15734;50.904;6.922;2023-04-25T05:43:34;16.33;;;4.50;;
28523;SDS011;15734;50.904;6.922;2023-04-25T05:46:00;21.88;;;5.50;;
28523;SDS011;15734;50.904;6.922;2023-04-25T05:48:25;22.77;;;4.88;;
28523;SDS011;15734;50.904;6.922;2023-04-25T05:50:51;26.30;;;6.43;;
28523;SDS011;15734;50.904;6.922;2023-04-25T05:53:16;19.33;;;5.20;;
28523;SDS011;15734;50.904;6.922;2023-04-25T05:55:42;17.60;;;5.93;;
28523;SDS011;15734;50.904;6.922;2023-04-25T05:58:08;31.90;;;4.75;;
28523;SDS011;15734;50.904;6.922;2023-04-25T06:00:33;25.95;;;4.45;;
28523;SDS011;15734;50.904;6.922;2023-04-25T06:02:59;24.45;;;4.20;;
28523;SDS011;15734;50.904;6.922;2023-04-25T06:05:25;27.80;;;5.47;;
28523;SDS011;15734;50.904;6.922;2023-04-25T06:07:51;18.35;;;5.88;;
28523;SDS011;15734;50.904;6.922;2023-04-25T06:10:17;20.90;;;5.75;;
28523;SDS011;15734;50.904;6.922;2023-04-25T06:12:43;24.55;;;4.63;;
28523;SDS011;15734;50.904;6.922;2023-04-25T06:15:09;19.67;;;4.82;;
28523;SDS011;15734;50.904;6.922;2023-04-25T06:17:35;24.27;;;4.30;;
28523;SDS011;15734;50.904;6.922;2023-04-25T06:20:00;26.25;;;5.32;;
28523;SDS011;15734;50.904;6.922;2023-04-25T06:22:26;21.27;;;4.75;;
28523;SDS011;15734;50.904;6.922;2023-04-25T06:24:52;17.27;;;4.97;;
28523;SDS011;15734;50.904;6.922;2023-04-25T06:27:17;22.00;;;5.03;;
28523;SDS011;15734;50.904;6.922;2023-04-25T06:29:43;17.20;;;3.95;;
28523;SDS011;15734;50.904;6.922;2023-04-25T06:32:09;17.05;;;4.75;;
28523;SDS011;15734;50.904;6.922;2023-04-25T06:34:34;26.10;;;4.63;;
28523;SDS011;15734;50.904;6.922;2023-04-25T06:37:00;26.95;;;6.65;;
28523;SDS011;15734;50.904;6.922;2023-04-25T06:39:25;15.18;;;5.72;;
28523;SDS011;15734;50.904;6.922;2023-04-25T06:41:51;29.92;;;5.18;;
28523;SDS011;15734;50.904;6.922;2023-04-25T06:44:16;19.30;;;4.88;;
28523;SDS011;15734;50.904;6.922;2023-04-25T06:46:42;17.15;;;4.45;;
28523;SDS011;15734;50.904;6.922;2023-04-25T06:49:07;21.55;;;4.05;;
28523;SDS011;15734;50.904;6.922;2023-04-25T06:51:33;21.70;;;4.50;;
28523;SDS011;15734;50.904;6.922;2023-04-25T06:53:59;13.18;;;3.42;;
28523;SDS011;15734;50.904;6.922;2023-04-25T06:56:25;20.60;;;3.50;;
28523;SDS011;15734;50.904;6.922;2023-04-25T06:58:50;19.20;;;3.05;;
28523;SDS011;15734;50.904;6.922;2023-04-25T07:01:16;21.33;;;5.97;;
28523;SDS011;15734;50.904;6.922;2023-04-25T07:03:41;13.52;;;3.10;;
28523;SDS011;15734;50.904;6.922;2023-04-25T07:06:07;15.05;;;3.10;;
28523;SDS011;15734;50.904;6.922;2023-04-25T07:08:32;18.90;;;3.80;;
28523;SDS011;15734;50.904;6.922;2023-04-25T07:10:58;13.80;;;3.58;;
28523;SDS011;15734;50.904;6.922;2023-04-25T07:13:23;17.30;;;3.60;;
28523;SDS011;15734;50.904;6.922;2023-04-25T07:15:49;21.20;;;4.63;;
28523;SDS011;15734;50.904;6.922;2023-04-25T07:18:14;24.25;;;4.28;;
28523;SDS011;15734;50.904;6.922;2023-04-25T07:20:40;24.83;;;4.88;;
28523;SDS011;15734;50.904;6.922;2023-04-25T07:23:06;18.70;;;3.85;;
28523;SDS011;15734;50.904;6.922;2023-04-25T07:25:32;19.98;;;3.00;;
28523;SDS011;15734;50.904;6.922;2023-04-25T07:27:57;16.45;;;3.53;;
28523;SDS011;15734;50.904;6.922;2023-04-25T07:30:23;18.52;;;3.15;;
28523;SDS011;15734;50.904;6.922;2023-04-25T07:32:49;10.98;;;2.85;;
28523;SDS011;15734;50.904;6.922;2023-04-25T07:35:15;17.85;;;2.97;;
28523;SDS011;15734;50.904;6.922;2023-04-25T07:37:41;14.63;;;2.88;;
28523;SDS011;15734;50.904;6.922;2023-04-25T07:40:08;14.80;;;3.42;;
28523;SDS011;15734;50.904;6.922;2023-04-25T07:42:34;11.77;;;2.85;;
28523;SDS011;15734;50.904;6.922;2023-04-25T07:45:00;20.33;;;3.35;;
28523;SDS011;15734;50.904;6.922;2023-04-25T07:47:26;10.80;;;3.30;;
28523;SDS011;15734;50.904;6.922;2023-04-25T07:49:51;12.57;;;2.58;;
28523;SDS011;15734;50.904;6.922;2023-04-25T07:52:17;10.40;;;2.80;;
28523;SDS011;15734;50.904;6.922;2023-04-25T07:54:43;23.95;;;4.55;;
28523;SDS011;15734;50.904;6.922;2023-04-25T07:57:08;12.32;;;3.50;;
28523;SDS011;15734;50.904;6.922;2023-04-25T07:59:34;15.40;;;3.20;;
28523;SDS011;15734;50.904;6.922;2023-04-25T08:02:00;17.40;;;2.85;;
28523;SDS011;15734;50.904;6.922;2023-04-25T08:04:26;6.63;;;2.92;;
28523;SDS011;15734;50.904;6.922;2023-04-25T08:06:51;9.43;;;2.67;;
28523;SDS011;15734;50.904;6.922;2023-04-25T08:09:18;16.35;;;3.17;;
28523;SDS011;15734;50.904;6.922;2023-04-25T08:11:45;10.32;;;3.25;;
28523;SDS011;15734;50.904;6.922;2023-04-25T08:14:11;18.83;;;3.47;;
28523;SDS011;15734;50.904;6.922;2023-04-25T08:16:37;13.48;;;3.10;;
28523;SDS011;15734;50.904;6.922;2023-04-25T08:19:03;15.00;;;3.30;;
28523;SDS011;15734;50.904;6.922;2023-04-25T08:21:29;12.50;;;3.15;;
28523;SDS011;15734;50.904;6.922;2023-04-25T08:23:56;16.25;;;3.33;;
28523;SDS011;15734;50.904;6.922;2023-04-25T08:26:23;18.50;;;3.25;;
28523;SDS011;15734;50.904;6.922;2023-04-25T08:28:49;9.05;;;2.00;;
28523;SDS011;15734;50.904;6.922;2023-04-25T08:31:14;13.50;;;2.80;;
28523;SDS011;15734;50.904;6.922;2023-04-25T08:33:40;11.93;;;2.35;;
28523;SDS011;15734;50.904;6.922;2023-04-25T08:36:05;14.95;;;2.28;;
28523;SDS011;15734;50.904;6.922;2023-04-25T08:38:31;16.30;;;3.05;;
28523;SDS011;15734;50.904;6.922;2023-04-25T08:40:56;8.40;;;2.53;;
28523;SDS011;15734;50.904;6.922;2023-04-25T08:43:24;17.20;;;2.72;;
28523;SDS011;15734;50.904;6.922;2023-04-25T08:45:50;8.45;;;2.40;;
28523;SDS011;15734;50.904;6.922;2023-04-25T08:48:19;14.52;;;1.92;;
28523;SDS011;15734;50.904;6.922;2023-04-25T08:50:51;4.22;;;2.10;;
28523;SDS011;15734;50.904;6.922;2023-04-25T08:53:28;5.50;;;2.83;;
28523;SDS011;15734;50.904;6.922;2023-04-25T08:55:56;8.60;;;2.50;;
28523;SDS011;15734;50.904;6.922;2023-04-25T08:58:22;9.68;;;1.95;;
28523;SDS011;15734;50.904;6.922;2023-04-25T09:00:48;12.30;;;2.53;;
28523;SDS011;15734;50.904;6.922;2023-04-25T09:03:14;11.73;;;1.90;;
28523;SDS011;15734;50.904;6.922;2023-04-25T09:05:41;10.90;;;1.80;;
28523;SDS011;15734;50.904;6.922;2023-04-25T09:08:07;10.13;;;1.85;;
28523;SDS011;15734;50.904;6.922;2023-04-25T09:10:33;8.50;;;2.47;;
28523;SDS011;15734;50.904;6.922;2023-04-25T09:13:09;6.35;;;1.90;;
28523;SDS011;15734;50.904;6.922;2023-04-25T09:15:46;13.70;;;2.25;;
28523;SDS011;15734;50.904;6.922;2023-04-25T09:18:14;9.75;;;2.58;;
28523;SDS011;15734;50.904;6.922;2023-04-25T09:20:51;12.13;;;2.42;;
28523;SDS011;15734;50.904;6.922;2023-04-25T09:23:20;9.73;;;1.80;;
28523;SDS011;15734;50.904;6.922;2023-04-25T09:25:47;17.58;;;2.50;;
28523;SDS011;15734;50.904;6.922;2023-04-25T09:28:23;8.18;;;3.42;;
28523;SDS011;15734;50.904;6.922;2023-04-25T09:30:56;12.70;;;2.72;;
28523;SDS011;15734;50.904;6.922;2023-04-25T09:33:32;17.50;;;2.33;;
28523;SDS011;15734;50.904;6.922;2023-04-25T09:36:07;22.13;;;2.83;;
28523;SDS011;15734;50.904;6.922;2023-04-25T09:38:41;7.00;;;2.03;;
28523;SDS011;15734;50.904;6.922;2023-04-25T09:41:08;12.13;;;2.07;;
28523;SDS011;15734;50.904;6.922;2023-04-25T09:43:34;16.08;;;1.98;;
28523;SDS011;15734;50.904;6.922;2023-04-25T09:46:00;10.73;;;2.35;;
28523;SDS011;15734;50.904;6.922;2023-04-25T09:48:27;7.95;;;1.60;;
28523;SDS011;15734;50.904;6.922;2023-04-25T09:53:30;5.47;;;1.83;;
28523;SDS011;15734;50.904;6.922;2023-04-25T09:55:57;17.45;;;2.58;;
28523;SDS011;15734;50.904;6.922;2023-04-25T09:58:25;7.63;;;2.28;;
28523;SDS011;15734;50.904;6.922;2023-04-25T10:00:54;11.70;;;2.20;;
28523;SDS011;15734;50.904;6.922;2023-04-25T10:03:23;7.00;;;1.48;;
28523;SDS011;15734;50.904;6.922;2023-04-25T10:05:50;6.68;;;2.22;;
28523;SDS011;15734;50.904;6.922;2023-04-25T10:08:17;7.38;;;2.15;;
28523;SDS011;15734;50.904;6.922;2023-04-25T10:10:43;9.73;;;3.03;;
28523;SDS011;15734;50.904;6.922;2023-04-25T10:13:10;13.73;;;2.70;;
28523;SDS011;15734;50.904;6.922;2023-04-25T10:15:38;9.15;;;2.33;;
28523;SDS011;15734;50.904;6.922;2023-04-25T10:18:42;13.05;;;2.50;;
28523;SDS011;15734;50.904;6.922;2023-04-25T10:21:07;14.48;;;2.47;;
28523;SDS011;15734;50.904;6.922;2023-04-25T10:23:33;11.00;;;1.77;;
28523;SDS011;15734;50.904;6.922;2023-04-25T10:25:59;17.92;;;2.60;;
28523;SDS011;15734;50.904;6.922;2023-04-25T10:28:25;20.17;;;2.75;;
28523;SDS011;15734;50.904;6.922;2023-04-25T10:31:04;17.75;;;2.67;;
28523;SDS011;15734;50.904;6.922;2023-04-25T10:33:36;11.27;;;2.28;;
28523;SDS011;15734;50.904;6.922;2023-04-25T10:36:13;17.33;;;2.05;;
28523;SDS011;15734;50.904;6.922;2023-04-25T10:38:41;14.38;;;2.72;;
28523;SDS011;15734;50.904;6.922;2023-04-25T10:41:08;12.50;;;2.47;;
28523;SDS011;15734;50.904;6.922;2023-04-25T10:43:36;12.75;;;1.65;;
28523;SDS011;15734;50.904;6.922;2023-04-25T10:51:31;13.52;;;2.25;;
28523;SDS011;15734;50.904;6.922;2023-04-25T10:56:25;7.38;;;2.03;;
28523;SDS011;15734;50.904;6.922;2023-04-25T10:59:01;14.48;;;3.25;;
28523;SDS011;15734;50.904;6.922;2023-04-25T11:01:49;14.38;;;2.50;;
28523;SDS011;15734;50.904;6.922;2023-04-25T11:04:21;11.80;;;2.92;;
28523;SDS011;15734;50.904;6.922;2023-04-25T11:07:00;7.18;;;2.20;;
28523;SDS011;15734;50.904;6.922;2023-04-25T11:09:28;4.90;;;1.88;;
28523;SDS011;15734;50.904;6.922;2023-04-25T11:11:55;10.27;;;4.05;;
28523;SDS011;15734;50.904;6.922;2023-04-25T11:14:21;7.18;;;1.88;;
28523;SDS011;15734;50.904;6.922;2023-04-25T11:16:47;10.27;;;2.22;;
28523;SDS011;15734;50.904;6.922;2023-04-25T11:19:18;7.47;;;1.98;;
28523;SDS011;15734;50.904;6.922;2023-04-25T11:21:45;4.45;;;1.83;;
28523;SDS011;15734;50.904;6.922;2023-04-25T11:24:10;10.20;;;2.50;;
28523;SDS011;15734;50.904;6.922;2023-04-25T11:26:36;7.20;;;1.70;;
28523;SDS011;15734;50.904;6.922;2023-04-25T11:29:02;7.75;;;1.27;;
28523;SDS011;15734;50.904;6.922;2023-04-25T11:31:28;5.85;;;1.15;;
28523;SDS011;15734;50.904;6.922;2023-04-25T11:33:56;9.82;;;1.88;;
28523;SDS011;15734;50.904;6.922;2023-04-25T11:36:23;5.80;;;1.38;;
28523;SDS011;15734;50.904;6.922;2023-04-25T11:38:50;11.07;;;1.83;;
28523;SDS011;15734;50.904;6.922;2023-04-25T11:41:16;11.15;;;1.70;;
28523;SDS011;15734;50.904;6.922;2023-04-25T11:43:43;13.40;;;1.65;;
28523;SDS011;15734;50.904;6.922;2023-04-25T11:46:09;3.40;;;1.42;;
28523;SDS011;15734;50.904;6.922;2023-04-25T11:48:41;8.35;;;1.98;;
28523;SDS011;15734;50.904;6.922;2023-04-25T11:51:07;2.90;;;2.17;;
28523;SDS011;15734;50.904;6.922;2023-04-25T11:53:33;11.70;;;1.25;;
28523;SDS011;15734;50.904;6.922;2023-04-25T11:55:59;6.32;;;1.58;;
28523;SDS011;15734;50.904;6.922;2023-04-25T11:58:25;5.45;;;1.75;;
28523;SDS011;15734;50.904;6.922;2023-04-25T12:00:51;5.22;;;1.80;;
28523;SDS011;15734;50.904;6.922;2023-04-25T12:03:17;13.70;;;1.77;;
28523;SDS011;15734;50.904;6.922;2023-04-25T12:05:43;2.80;;;1.25;;
28523;SDS011;15734;50.904;6.922;2023-04-25T12:08:13;4.60;;;1.35;;
28523;SDS011;15734;50.904;6.922;2023-04-25T12:10:40;14.02;;;2.00;;
28523;SDS011;15734;50.904;6.922;2023-04-25T12:13:17;4.22;;;1.88;;
28523;SDS011;15734;50.904;6.922;2023-04-25T12:15:44;9.63;;;1.50;;
28523;SDS011;15734;50.904;6.922;2023-04-25T12:18:10;11.18;;;1.55;;
28523;SDS011;15734;50.904;6.922;2023-04-25T12:20:36;8.05;;;1.95;;
28523;SDS011;15734;50.904;6.922;2023-04-25T12:23:01;2.58;;;1.35;;
28523;SDS011;15734;50.904;6.922;2023-04-25T12:33:30;2.58;;;1.27;;
28523;SDS011;15734;50.904;6.922;2023-04-25T12:36:01;5.28;;;1.90;;
28523;SDS011;15734;50.904;6.922;2023-04-25T12:38:36;4.53;;;1.50;;
28523;SDS011;15734;50.904;6.922;2023-04-25T12:41:04;2.80;;;1.00;;
28523;SDS011;15734;50.904;6.922;2023-04-25T12:43:30;15.15;;;1.98;;
28523;SDS011;15734;50.904;6.922;2023-04-25T12:45:55;6.18;;;1.73;;
28523;SDS011;15734;50.904;6.922;2023-04-25T12:48:21;6.05;;;1.85;;
28523;SDS011;15734;50.904;6.922;2023-04-25T12:50:48;6.18;;;1.50;;
28523;SDS011;15734;50.904;6.922;2023-04-25T12:53:17;3.72;;;1.48;;
28523;SDS011;15734;50.904;6.922;2023-04-25T12:55:44;6.18;;;1.67;;
28523;SDS011;15734;50.904;6.922;2023-04-25T12:58:11;5.15;;;1.08;;
28523;SDS011;15734;50.904;6.922;2023-04-25T13:00:38;5.53;;;1.45;;
28523;SDS011;15734;50.904;6.922;2023-04-25T13:03:03;8.18;;;1.60;;
28523;SDS011;15734;50.904;6.922;2023-04-25T13:05:29;7.55;;;1.40;;
28523;SDS011;15734;50.904;6.922;2023-04-25T13:07:55;8.15;;;1.40;;
28523;SDS011;15734;50.904;6.922;2023-04-25T13:10:21;10.38;;;1.73;;
28523;SDS011;15734;50.904;6.922;2023-04-25T13:12:47;7.90;;;1.60;;
28523;SDS011;15734;50.904;6.922;2023-04-25T13:15:12;8.07;;;1.92;;
28523;SDS011;15734;50.904;6.922;2023-04-25T13:17:40;10.25;;;2.50;;
28523;SDS011;15734;50.904;6.922;2023-04-25T13:20:06;6.80;;;1.58;;
28523;SDS011;15734;50.904;6.922;2023-04-25T13:22:34;10.85;;;1.70;;
28523;SDS011;15734;50.904;6.922;2023-04-25T13:25:02;6.95;;;1.48;;
28523;SDS011;15734;50.904;6.922;2023-04-25T13:27:28;5.03;;;1.48;;
28523;SDS011;15734;50.904;6.922;2023-04-25T13:29:53;7.75;;;1.45;;
28523;SDS011;15734;50.904;6.922;2023-04-25T13:32:19;3.58;;;1.92;;
28523;SDS011;15734;50.904;6.922;2023-04-25T13:34:45;6.65;;;1.20;;
28523;SDS011;15734;50.904;6.922;2023-04-25T13:37:10;4.75;;;1.05;;
28523;SDS011;15734;50.904;6.922;2023-04-25T13:39:36;5.47;;;1.38;;
28523;SDS011;15734;50.904;6.922;2023-04-25T13:42:01;9.90;;;2.13;;
28523;SDS011;15734;50.904;6.922;2023-04-25T13:44:27;4.15;;;1.42;;
28523;SDS011;15734;50.904;6.922;2023-04-25T13:46:52;10.05;;;1.58;;
28523;SDS011;15734;50.904;6.922;2023-04-25T13:49:18;10.55;;;1.27;;
28523;SDS011;15734;50.904;6.922;2023-04-25T13:51:43;5.68;;;1.30;;
28523;SDS011;15734;50.904;6.922;2023-04-25T13:54:09;5.15;;;1.52;;
28523;SDS011;15734;50.904;6.922;2023-04-25T13:56:35;3.95;;;1.13;;
28523;SDS011;15734;50.904;6.922;2023-04-25T13:59:01;2.30;;;1.10;;
28523;SDS011;15734;50.904;6.922;2023-04-25T14:01:26;3.67;;;1.02;;
28523;SDS011;15734;50.904;6.922;2023-04-25T14:03:52;4.47;;;1.27;;
28523;SDS011;15734;50.904;6.922;2023-04-25T14:06:18;7.53;;;1.20;;
28523;SDS011;15734;50.904;6.922;2023-04-25T14:08:48;2.78;;;0.95;;
28523;SDS011;15734;50.904;6.922;2023-04-25T14:11:14;2.97;;;1.10;;
28523;SDS011;15734;50.904;6.922;2023-04-25T14:13:39;2.63;;;1.05;;
28523;SDS011;15734;50.904;6.922;2023-04-25T14:16:05;6.93;;;1.23;;
28523;SDS011;15734;50.904;6.922;2023-04-25T14:18:30;5.50;;;1.00;;
28523;SDS011;15734;50.904;6.922;2023-04-25T14:20:56;2.33;;;0.93;;
28523;SDS011;15734;50.904;6.922;2023-04-25T14:23:21;5.00;;;1.00;;
28523;SDS011;15734;50.904;6.922;2023-04-25T14:25:47;2.92;;;1.20;;
28523;SDS011;15734;50.904;6.922;2023-04-25T14:28:12;1.83;;;1.00;;
28523;SDS011;15734;50.904;6.922;2023-04-25T14:30:38;2.05;;;0.90;;
28523;SDS011;15734;50.904;6.922;2023-04-25T14:33:03;4.85;;;1.10;;
28523;SDS011;15734;50.904;6.922;2023-04-25T14:35:30;4.78;;;1.10;;
28523;SDS011;15734;50.904;6.922;2023-04-25T14:37:55;3.97;;;0.80;;
28523;SDS011;15734;50.904;6.922;2023-04-25T14:40:21;2.72;;;0.80;;
28523;SDS011;15734;50.904;6.922;2023-04-25T14:42:48;4.68;;;1.13;;
28523;SDS011;15734;50.904;6.922;2023-04-25T14:45:14;3.70;;;0.68;;
28523;SDS011;15734;50.904;6.922;2023-04-25T14:47:40;2.05;;;0.90;;
28523;SDS011;15734;50.904;6.922;2023-04-25T14:50:06;4.07;;;0.70;;
28523;SDS011;15734;50.904;6.922;2023-04-25T14:52:33;3.13;;;0.80;;
28523;SDS011;15734;50.904;6.922;2023-04-25T14:54:59;2.10;;;0.82;;